createdAt,value
2023-01-30T00:04:12.579Z,98861.48
2023-01-30T00:09:17.056Z,98843.91
2023-01-30T00:14:19.470Z,98826.11
2023-01-30T00:19:22.004Z,98818.29
2023-01-30T00:24:24.121Z,98810.10
2023-01-30T00:29:26.194Z,98807.97
2023-01-30T00:34:35.443Z,98799.13
2023-01-30T00:39:40.753Z,98796.18
2023-01-30T00:45:01.659Z,98792.13
2023-01-30T00:50:05.552Z,98782.23
2023-01-30T00:55:09.005Z,98775.64
2023-01-30T01:00:11.794Z,98760.19
2023-01-30T01:05:15.878Z,98756.17
2023-01-30T01:10:18.229Z,98744.86
2023-01-30T01:15:22.402Z,98731.36
2023-01-30T01:20:24.453Z,98719.61
2023-01-30T01:25:26.432Z,98710.84
2023-01-30T01:30:28.313Z,98700.27
2023-01-30T01:35:30.156Z,98686.13
2023-01-30T01:40:50.647Z,98664.52
2023-01-30T01:45:58.632Z,98640.89
2023-01-30T01:51:17.713Z,98624.59
2023-01-30T01:56:20.939Z,98615.39
2023-01-30T02:01:23.097Z,98602.30
2023-01-30T02:06:28.335Z,98596.27
2023-01-30T02:11:47.860Z,98586.99
2023-01-30T02:16:49.755Z,98587.59
2023-01-30T02:22:18.458Z,98579.25
2023-01-30T02:27:34.232Z,98561.74
2023-01-30T02:32:56.199Z,98548.64
2023-01-30T02:38:10.780Z,98550.42
2023-01-30T02:43:46.748Z,98537.65
2023-01-30T02:48:57.656Z,98529.05
2023-01-30T02:54:00.585Z,98532.90
2023-01-30T02:59:08.535Z,98532.88
2023-01-30T03:04:32.868Z,98529.86
2023-01-30T03:09:52.574Z,98522.13
2023-01-30T03:15:17.901Z,98516.08
2023-01-30T03:20:23.896Z,98516.63
2023-01-30T03:25:29.410Z,98508.52
2023-01-30T03:30:31.703Z,98501.27
2023-01-30T03:35:41.382Z,98497.02
2023-01-30T03:40:45.003Z,98490.56
2023-01-30T03:45:47.049Z,98477.27
2023-01-30T03:50:49.367Z,98469.99
2023-01-30T03:55:51.772Z,98458.45
2023-01-30T04:00:57.820Z,98444.12
2023-01-30T04:06:00.882Z,98427.21
2023-01-30T04:11:04.260Z,98417.48
2023-01-30T04:16:17.878Z,98411.41
2023-01-30T04:21:46.429Z,98401.02
2023-01-30T04:26:48.634Z,98403.99
2023-01-30T04:31:51.240Z,98390.48
2023-01-30T04:37:02.889Z,98382.10
2023-01-30T04:42:05.691Z,98382.58
2023-01-30T04:47:13.069Z,98386.99
2023-01-30T04:52:16.256Z,98374.37
2023-01-30T04:57:18.189Z,98356.45
2023-01-30T05:02:23.936Z,98348.30
2023-01-30T05:07:29.150Z,98336.52
2023-01-30T05:12:39.387Z,98331.45
2023-01-30T05:17:43.762Z,98330.59
2023-01-30T05:22:46.609Z,98317.38
2023-01-30T05:27:48.744Z,98317.85
2023-01-30T05:32:50.803Z,98319.63
2023-01-30T05:37:53.014Z,98336.16
2023-01-30T05:42:54.931Z,98307.31
2023-01-30T05:48:01.326Z,98288.34
2023-01-30T05:53:03.659Z,98264.47
2023-01-30T05:58:06.185Z,98236.95
2023-01-30T06:03:08.074Z,98236.95
2023-01-30T06:08:10.048Z,98256.35
2023-01-30T06:13:12.100Z,98257.46
2023-01-30T06:18:14.039Z,98246.86
2023-01-30T06:23:16.370Z,98251.30
2023-01-30T06:28:19.184Z,98244.55
2023-01-30T06:33:21.141Z,98241.23
2023-01-30T06:38:23.047Z,98232.64
2023-01-30T06:43:25.191Z,98236.95
2023-01-30T06:48:27.451Z,98236.21
2023-01-30T06:53:32.329Z,98228.52
2023-01-30T06:58:34.157Z,98217.36
2023-01-30T07:03:36.047Z,98222.17
2023-01-30T07:08:37.993Z,98201.52
2023-01-30T07:13:39.846Z,98188.39
2023-01-30T07:18:42.074Z,98189.15
2023-01-30T07:23:44.120Z,98174.05
2023-01-30T07:28:47.146Z,98168.92
2023-01-30T07:33:49.386Z,98170.69
2023-01-30T07:38:51.603Z,98163.50
2023-01-30T07:43:54.058Z,98156.95
2023-01-30T07:48:56.649Z,98156.96
2023-01-30T07:54:02.007Z,98161.03
2023-01-30T07:59:05.701Z,98178.30
2023-01-30T08:04:07.694Z,98162.27
2023-01-30T08:09:10.166Z,98136.07
2023-01-30T08:14:12.266Z,98128.11
2023-01-30T08:19:14.649Z,98120.45
2023-01-30T08:24:16.914Z,98122.54
2023-01-30T08:29:19.083Z,98125.38
2023-01-30T08:34:21.032Z,98127.90
2023-01-30T08:39:22.903Z,98119.11
2023-01-30T08:44:25.221Z,98128.41
2023-01-30T08:49:27.254Z,98112.21
2023-01-30T08:54:31.375Z,98114.85
2023-01-30T08:59:35.249Z,98110.28
2023-01-30T09:04:37.384Z,98104.90
2023-01-30T09:09:39.344Z,98087.28
2023-01-30T09:14:41.218Z,98083.70
2023-01-30T09:19:43.496Z,98081.23
2023-01-30T09:24:45.492Z,98072.35
2023-01-30T09:29:47.896Z,98062.60
2023-01-30T09:34:50.696Z,98058.00
2023-01-30T09:39:58.004Z,98055.64
2023-01-30T09:45:24.370Z,98042.05
2023-01-30T09:50:35.752Z,98031.48
2023-01-30T09:55:41.799Z,98017.34
2023-01-30T10:00:44.150Z,98012.47
2023-01-30T10:05:53.827Z,98017.61
2023-01-30T10:11:16.949Z,98006.67
2023-01-30T10:16:28.359Z,97996.11
2023-01-30T10:22:16.097Z,97980.58
2023-01-30T10:27:20.824Z,97969.08
2023-01-30T10:32:46.452Z,97954.02
2023-01-30T10:37:59.529Z,97939.45
2023-01-30T10:43:26.043Z,97939.09
2023-01-30T10:48:45.726Z,97948.13
2023-01-30T10:54:02.813Z,97920.79
2023-01-30T10:59:20.312Z,97914.84
2023-01-30T11:04:37.209Z,97905.08
2023-01-30T11:09:44.584Z,97899.37
2023-01-30T11:14:52.948Z,97893.95
2023-01-30T11:19:56.892Z,97882.71
2023-01-30T11:25:25.944Z,97869.36
2023-01-30T11:30:33.714Z,97853.63
2023-01-30T11:35:42.678Z,97843.70
2023-01-30T11:40:45.408Z,97843.97
2023-01-30T11:45:50.152Z,97832.35
2023-01-30T11:50:58.394Z,97824.15
2023-01-30T11:56:09.121Z,97812.67
2023-01-30T12:01:13.405Z,97816.41
2023-01-30T12:06:24.311Z,97808.20
2023-01-30T12:11:32.178Z,97805.08
2023-01-30T12:17:00.627Z,97806.46
2023-01-30T12:22:24.636Z,97804.71
2023-01-30T12:27:38.996Z,97805.95
2023-01-30T12:32:42.196Z,97805.06
2023-01-30T12:38:10.821Z,97804.13
2023-01-30T12:43:39.452Z,97788.64
2023-01-30T12:49:07.947Z,97781.38
2023-01-30T12:54:35.731Z,97775.00
2023-01-30T13:00:00.418Z,97769.34
2023-01-30T13:05:26.344Z,97765.17
2023-01-30T13:10:39.825Z,97754.73
2023-01-30T13:16:07.686Z,97755.84
2023-01-30T13:21:21.333Z,97756.92
2023-01-30T13:26:28.812Z,97754.02
2023-01-30T13:31:36.809Z,97744.62
2023-01-30T13:37:04.165Z,97751.70
2023-01-30T13:42:13.428Z,97747.05
2023-01-30T13:47:46.449Z,97745.27
2023-01-30T13:52:55.387Z,97731.52
2023-01-30T13:58:26.452Z,97722.20
2023-01-30T14:03:40.611Z,97722.27
2023-01-30T14:08:59.600Z,97723.97
2023-01-30T14:14:21.764Z,97729.70
2023-01-30T14:19:54.079Z,97725.09
2023-01-30T14:25:35.418Z,97725.38
2023-01-30T14:30:38.735Z,97724.88
2023-01-30T14:35:40.942Z,97730.52
2023-01-30T14:40:58.343Z,97731.34
2023-01-30T14:46:25.109Z,97733.83
2023-01-30T14:51:39.338Z,97739.92
2023-01-30T14:57:06.179Z,97741.84
2023-01-30T15:02:17.184Z,97750.13
2023-01-30T15:07:43.869Z,97758.86
2023-01-30T15:13:27.949Z,97771.69
2023-01-30T15:19:03.873Z,97783.30
2023-01-30T15:24:45.085Z,97784.58
2023-01-30T15:30:36.045Z,97797.85
2023-01-30T15:35:43.969Z,97795.56
2023-01-30T15:40:49.577Z,97796.91
2023-01-30T15:46:25.355Z,97798.73
2023-01-30T15:51:30.758Z,97800.48
2023-01-30T15:56:33.336Z,97806.55
2023-01-30T16:01:35.469Z,97801.88
2023-01-30T16:06:38.323Z,97810.45
2023-01-30T16:11:42.842Z,97814.96
2023-01-30T16:17:11.917Z,97827.58
2023-01-30T16:22:20.920Z,97824.29
2023-01-30T16:27:30.886Z,97824.70
2023-01-30T16:32:33.708Z,97835.58
2023-01-30T16:37:36.404Z,97847.25
2023-01-30T16:42:40.887Z,97849.36
2023-01-30T16:47:42.880Z,97848.12
2023-01-30T16:52:47.850Z,97839.67
2023-01-30T16:57:55.437Z,97829.80
2023-01-30T17:03:03.867Z,97832.15
2023-01-30T17:08:09.053Z,97836.28
2023-01-30T17:13:43.397Z,97840.14
2023-01-30T17:18:58.369Z,97847.60
2023-01-30T17:24:03.176Z,97854.11
2023-01-30T17:29:07.228Z,97847.02
2023-01-30T17:34:12.402Z,97849.21
2023-01-30T17:39:18.183Z,97834.92
2023-01-30T17:44:21.237Z,97841.23
2023-01-30T17:49:26.443Z,97833.91
2023-01-30T17:54:30.182Z,97829.81
2023-01-30T17:59:32.737Z,97830.90
2023-01-30T18:04:34.705Z,97832.88
2023-01-30T18:09:36.734Z,97827.98
2023-01-30T18:14:38.665Z,97820.60
2023-01-30T18:19:40.658Z,97818.23
2023-01-30T18:24:42.760Z,97819.06
2023-01-30T18:29:45.452Z,97823.86
2023-01-30T18:34:47.472Z,97819.06
2023-01-30T18:39:50.194Z,97812.55
2023-01-30T18:44:52.286Z,97817.95
2023-01-30T18:49:54.344Z,97817.92
2023-01-30T18:54:56.432Z,97815.31
2023-01-30T18:59:58.345Z,97816.42
2023-01-30T19:05:00.689Z,97813.59
2023-01-30T19:10:03.961Z,97822.33
2023-01-30T19:15:06.549Z,97820.98
2023-01-30T19:20:10.939Z,97826.41
2023-01-30T19:25:13.252Z,97834.42
2023-01-30T19:30:15.459Z,97827.14
2023-01-30T19:35:18.140Z,97837.02
2023-01-30T19:40:20.710Z,97855.10
2023-01-30T19:45:23.489Z,97851.70
2023-01-30T19:50:25.401Z,97850.33
2023-01-30T19:55:27.310Z,97865.33
2023-01-30T20:00:29.215Z,97855.59
2023-01-30T20:05:31.946Z,97875.46
2023-01-30T20:10:33.955Z,97873.38
2023-01-30T20:15:39.482Z,97870.52
2023-01-30T20:20:41.480Z,97880.40
2023-01-30T20:25:43.408Z,97887.95
2023-01-30T20:30:45.451Z,97891.17
2023-01-30T20:35:47.599Z,97887.06
2023-01-30T20:40:49.827Z,97876.36
2023-01-30T20:46:03.376Z,97877.73
2023-01-30T20:51:11.317Z,97893.06
2023-01-30T20:56:13.285Z,97894.21
2023-01-30T21:01:18.604Z,97892.20
2023-01-30T21:06:42.756Z,97909.27
2023-01-30T21:11:48.568Z,97905.41
2023-01-30T21:16:50.652Z,97903.39
2023-01-30T21:21:55.336Z,97917.75
2023-01-30T21:26:57.758Z,97929.67
2023-01-30T21:31:59.959Z,97943.33
2023-01-30T21:37:20.748Z,97950.93
2023-01-30T21:42:48.712Z,97960.05
2023-01-30T21:47:51.943Z,97965.07
2023-01-30T21:52:54.287Z,97974.40
2023-01-30T21:57:56.784Z,97975.46
2023-01-30T22:02:58.676Z,97988.49
2023-01-30T22:08:00.571Z,97991.20
2023-01-30T22:13:06.236Z,97989.70
2023-01-30T22:18:08.291Z,97989.24
2023-01-30T22:23:10.615Z,98005.17
2023-01-30T22:28:12.488Z,98011.16
2023-01-30T22:33:14.890Z,98025.02
2023-01-30T22:38:17.072Z,98031.86
2023-01-30T22:43:19.049Z,98039.58
2023-01-30T22:48:21.016Z,98039.70
2023-01-30T22:53:23.667Z,98050.37
2023-01-30T22:58:25.900Z,98051.92
2023-01-30T23:03:28.193Z,98050.11
2023-01-30T23:08:32.614Z,98052.87
2023-01-30T23:13:39.099Z,98059.77
2023-01-30T23:18:58.224Z,98064.55
2023-01-30T23:24:02.205Z,98070.29
2023-01-30T23:29:13.864Z,98077.77
2023-01-30T23:34:18.561Z,98083.70
2023-01-30T23:39:20.753Z,98083.06
2023-01-30T23:44:23.270Z,98087.67
2023-01-30T23:49:25.431Z,98087.28
2023-01-30T23:54:30.054Z,98088.30
2023-01-30T23:59:43.665Z,98084.15
